sensor_id;sensor_type;location;lat;lon;timestamp;P1;durP1;ratioP1;P2;durP2;ratioP2
58083;SDS011;43882;51.550;11.858;2022-12-29T00:02:25;9.18;;;2.80;;
58083;SDS011;43882;51.550;11.858;2022-12-29T00:04:51;9.38;;;2.65;;
58083;SDS011;43882;51.550;11.858;2022-12-29T00:07:18;11.75;;;2.83;;
58083;SDS011;43882;51.550;11.858;2022-12-29T00:09:44;10.88;;;2.90;;
58083;SDS011;43882;51.550;11.858;2022-12-29T00:12:10;10.77;;;2.70;;
58083;SDS011;43882;51.550;11.858;2022-12-29T00:14:36;10.25;;;2.90;;
58083;SDS011;43882;51.550;11.858;2022-12-29T00:17:21;9.40;;;2.60;;
58083;SDS011;43882;51.550;11.858;2022-12-29T00:19:47;9.50;;;2.60;;
58083;SDS011;43882;51.550;11.858;2022-12-29T00:22:31;10.82;;;2.72;;
58083;SDS011;43882;51.550;11.858;2022-12-29T00:25:16;10.68;;;2.53;;
58083;SDS011;43882;51.550;11.858;2022-12-29T00:28:01;8.18;;;2.50;;
58083;SDS011;43882;51.550;11.858;2022-12-29T00:30:45;10.35;;;2.80;;
58083;SDS011;43882;51.550;11.858;2022-12-29T00:33:32;8.88;;;2.80;;
58083;SDS011;43882;51.550;11.858;2022-12-29T00:36:23;8.95;;;2.80;;
58083;SDS011;43882;51.550;11.858;2022-12-29T00:38:53;12.48;;;2.78;;
58083;SDS011;43882;51.550;11.858;2022-12-29T00:41:40;10.93;;;2.75;;
58083;SDS011;43882;51.550;11.858;2022-12-29T00:44:25;7.95;;;2.60;;
58083;SDS011;43882;51.550;11.858;2022-12-29T00:46:51;12.32;;;2.90;;
58083;SDS011;43882;51.550;11.858;2022-12-29T00:49:17;11.60;;;3.03;;
58083;SDS011;43882;51.550;11.858;2022-12-29T00:51:56;9.10;;;2.65;;
58083;SDS011;43882;51.550;11.858;2022-12-29T00:54:23;9.25;;;2.83;;
58083;SDS011;43882;51.550;11.858;2022-12-29T00:56:50;7.80;;;2.47;;
58083;SDS011;43882;51.550;11.858;2022-12-29T00:59:17;11.20;;;2.80;;
58083;SDS011;43882;51.550;11.858;2022-12-29T01:01:43;9.88;;;2.60;;
58083;SDS011;43882;51.550;11.858;2022-12-29T01:04:10;12.38;;;3.00;;
58083;SDS011;43882;51.550;11.858;2022-12-29T01:06:37;12.95;;;3.45;;
58083;SDS011;43882;51.550;11.858;2022-12-29T01:09:04;9.95;;;2.83;;
58083;SDS011;43882;51.550;11.858;2022-12-29T01:11:48;12.23;;;2.90;;
58083;SDS011;43882;51.550;11.858;2022-12-29T01:14:15;10.88;;;2.85;;
58083;SDS011;43882;51.550;11.858;2022-12-29T01:16:41;8.98;;;2.90;;
58083;SDS011;43882;51.550;11.858;2022-12-29T01:19:08;10.25;;;2.75;;
58083;SDS011;43882;51.550;11.858;2022-12-29T01:21:34;9.65;;;2.50;;
58083;SDS011;43882;51.550;11.858;2022-12-29T01:24:00;10.13;;;2.60;;
58083;SDS011;43882;51.550;11.858;2022-12-29T01:26:26;11.00;;;2.70;;
58083;SDS011;43882;51.550;11.858;2022-12-29T01:28:52;11.38;;;2.92;;
58083;SDS011;43882;51.550;11.858;2022-12-29T01:31:18;9.52;;;2.70;;
58083;SDS011;43882;51.550;11.858;2022-12-29T01:33:44;9.23;;;2.80;;
58083;SDS011;43882;51.550;11.858;2022-12-29T01:36:11;9.40;;;2.63;;
58083;SDS011;43882;51.550;11.858;2022-12-29T01:38:39;10.98;;;2.70;;
58083;SDS011;43882;51.550;11.858;2022-12-29T01:41:06;9.30;;;2.40;;
58083;SDS011;43882;51.550;11.858;2022-12-29T01:43:40;8.35;;;2.38;;
58083;SDS011;43882;51.550;11.858;2022-12-29T01:46:26;7.45;;;2.45;;
58083;SDS011;43882;51.550;11.858;2022-12-29T01:49:20;8.73;;;2.60;;
58083;SDS011;43882;51.550;11.858;2022-12-29T01:56:45;9.82;;;2.50;;
58083;SDS011;43882;51.550;11.858;2022-12-29T01:59:13;10.90;;;2.92;;
58083;SDS011;43882;51.550;11.858;2022-12-29T02:01:42;10.07;;;2.72;;
58083;SDS011;43882;51.550;11.858;2022-12-29T02:04:09;10.35;;;2.85;;
58083;SDS011;43882;51.550;11.858;2022-12-29T02:06:38;10.35;;;2.80;;
58083;SDS011;43882;51.550;11.858;2022-12-29T02:09:17;11.13;;;2.75;;
58083;SDS011;43882;51.550;11.858;2022-12-29T02:11:43;10.98;;;2.80;;
58083;SDS011;43882;51.550;11.858;2022-12-29T02:14:10;10.30;;;2.63;;
58083;SDS011;43882;51.550;11.858;2022-12-29T02:22:32;10.23;;;2.63;;
58083;SDS011;43882;51.550;11.858;2022-12-29T02:25:14;9.68;;;2.45;;
58083;SDS011;43882;51.550;11.858;2022-12-29T02:27:57;9.85;;;2.92;;
58083;SDS011;43882;51.550;11.858;2022-12-29T02:30:44;12.00;;;2.80;;
58083;SDS011;43882;51.550;11.858;2022-12-29T02:35:58;9.32;;;2.70;;
58083;SDS011;43882;51.550;11.858;2022-12-29T02:38:46;12.05;;;2.60;;
58083;SDS011;43882;51.550;11.858;2022-12-29T02:41:33;14.27;;;3.05;;
58083;SDS011;43882;51.550;11.858;2022-12-29T02:44:24;8.47;;;2.50;;
58083;SDS011;43882;51.550;11.858;2022-12-29T02:47:14;9.00;;;2.70;;
58083;SDS011;43882;51.550;11.858;2022-12-29T02:50:02;11.70;;;2.80;;
58083;SDS011;43882;51.550;11.858;2022-12-29T02:52:35;10.23;;;2.88;;
58083;SDS011;43882;51.550;11.858;2022-12-29T02:55:09;10.15;;;2.80;;
58083;SDS011;43882;51.550;11.858;2022-12-29T02:57:36;11.32;;;2.88;;
58083;SDS011;43882;51.550;11.858;2022-12-29T03:02:52;11.35;;;2.90;;
58083;SDS011;43882;51.550;11.858;2022-12-29T03:05:34;10.27;;;2.53;;
58083;SDS011;43882;51.550;11.858;2022-12-29T03:11:22;9.82;;;2.70;;
58083;SDS011;43882;51.550;11.858;2022-12-29T03:14:17;12.63;;;2.95;;
58083;SDS011;43882;51.550;11.858;2022-12-29T03:17:10;10.52;;;2.53;;
58083;SDS011;43882;51.550;11.858;2022-12-29T03:19:46;12.25;;;3.08;;
58083;SDS011;43882;51.550;11.858;2022-12-29T03:22:16;10.32;;;2.80;;
58083;SDS011;43882;51.550;11.858;2022-12-29T03:25:07;8.50;;;2.40;;
58083;SDS011;43882;51.550;11.858;2022-12-29T03:27:44;10.25;;;2.42;;
58083;SDS011;43882;51.550;11.858;2022-12-29T03:30:15;10.40;;;2.67;;
58083;SDS011;43882;51.550;11.858;2022-12-29T03:32:52;10.63;;;2.60;;
58083;SDS011;43882;51.550;11.858;2022-12-29T03:35:21;10.90;;;2.63;;
58083;SDS011;43882;51.550;11.858;2022-12-29T03:37:52;9.82;;;2.60;;
58083;SDS011;43882;51.550;11.858;2022-12-29T03:40:52;12.55;;;2.70;;
58083;SDS011;43882;51.550;11.858;2022-12-29T03:43:20;9.95;;;2.60;;
58083;SDS011;43882;51.550;11.858;2022-12-29T03:45:47;10.52;;;2.80;;
58083;SDS011;43882;51.550;11.858;2022-12-29T03:48:13;9.75;;;2.63;;
58083;SDS011;43882;51.550;11.858;2022-12-29T03:50:39;8.93;;;2.67;;
58083;SDS011;43882;51.550;11.858;2022-12-29T03:53:05;10.93;;;2.60;;
58083;SDS011;43882;51.550;11.858;2022-12-29T03:55:31;8.27;;;2.55;;
58083;SDS011;43882;51.550;11.858;2022-12-29T03:57:58;10.93;;;2.72;;
58083;SDS011;43882;51.550;11.858;2022-12-29T04:00:24;8.50;;;2.30;;
58083;SDS011;43882;51.550;11.858;2022-12-29T04:02:50;9.80;;;2.80;;
58083;SDS011;43882;51.550;11.858;2022-12-29T04:05:16;9.45;;;2.47;;
58083;SDS011;43882;51.550;11.858;2022-12-29T04:07:42;7.28;;;2.28;;
58083;SDS011;43882;51.550;11.858;2022-12-29T04:10:08;11.23;;;2.78;;
58083;SDS011;43882;51.550;11.858;2022-12-29T04:12:34;10.27;;;2.60;;
58083;SDS011;43882;51.550;11.858;2022-12-29T04:15:00;9.98;;;2.78;;
58083;SDS011;43882;51.550;11.858;2022-12-29T04:17:27;11.02;;;2.78;;
58083;SDS011;43882;51.550;11.858;2022-12-29T04:19:53;9.85;;;2.50;;
58083;SDS011;43882;51.550;11.858;2022-12-29T04:22:39;8.55;;;2.63;;
58083;SDS011;43882;51.550;11.858;2022-12-29T04:25:05;10.45;;;2.60;;
58083;SDS011;43882;51.550;11.858;2022-12-29T04:27:31;9.27;;;2.60;;
58083;SDS011;43882;51.550;11.858;2022-12-29T04:29:57;10.32;;;2.72;;
58083;SDS011;43882;51.550;11.858;2022-12-29T04:32:23;10.93;;;2.75;;
58083;SDS011;43882;51.550;11.858;2022-12-29T04:34:49;9.00;;;2.45;;
58083;SDS011;43882;51.550;11.858;2022-12-29T04:37:16;9.13;;;3.00;;
58083;SDS011;43882;51.550;11.858;2022-12-29T04:39:42;9.55;;;2.60;;
58083;SDS011;43882;51.550;11.858;2022-12-29T04:42:08;11.52;;;2.78;;
58083;SDS011;43882;51.550;11.858;2022-12-29T04:44:34;9.70;;;2.80;;
58083;SDS011;43882;51.550;11.858;2022-12-29T04:47:00;8.70;;;2.72;;
58083;SDS011;43882;51.550;11.858;2022-12-29T04:49:26;9.15;;;2.50;;
58083;SDS011;43882;51.550;11.858;2022-12-29T04:51:52;10.02;;;2.50;;
58083;SDS011;43882;51.550;11.858;2022-12-29T04:54:18;10.45;;;2.63;;
58083;SDS011;43882;51.550;11.858;2022-12-29T04:56:44;12.70;;;3.00;;
58083;SDS011;43882;51.550;11.858;2022-12-29T04:59:10;8.27;;;2.40;;
58083;SDS011;43882;51.550;11.858;2022-12-29T05:01:36;8.60;;;2.40;;
58083;SDS011;43882;51.550;11.858;2022-12-29T05:04:02;9.75;;;2.70;;
58083;SDS011;43882;51.550;11.858;2022-12-29T05:06:28;10.93;;;2.78;;
58083;SDS011;43882;51.550;11.858;2022-12-29T05:08:54;8.48;;;2.50;;
58083;SDS011;43882;51.550;11.858;2022-12-29T05:11:20;9.00;;;2.50;;
58083;SDS011;43882;51.550;11.858;2022-12-29T05:13:46;7.97;;;2.42;;
58083;SDS011;43882;51.550;11.858;2022-12-29T05:16:13;8.85;;;2.40;;
58083;SDS011;43882;51.550;11.858;2022-12-29T05:18:39;9.05;;;2.60;;
58083;SDS011;43882;51.550;11.858;2022-12-29T05:21:05;10.20;;;2.63;;
58083;SDS011;43882;51.550;11.858;2022-12-29T05:23:31;8.15;;;2.40;;
58083;SDS011;43882;51.550;11.858;2022-12-29T05:25:57;7.82;;;2.40;;
58083;SDS011;43882;51.550;11.858;2022-12-29T05:28:23;11.10;;;2.50;;
58083;SDS011;43882;51.550;11.858;2022-12-29T05:30:49;9.55;;;2.40;;
58083;SDS011;43882;51.550;11.858;2022-12-29T05:33:16;8.65;;;2.30;;
58083;SDS011;43882;51.550;11.858;2022-12-29T05:35:43;6.47;;;2.28;;
58083;SDS011;43882;51.550;11.858;2022-12-29T05:38:09;8.68;;;2.30;;
58083;SDS011;43882;51.550;11.858;2022-12-29T05:40:35;8.77;;;2.53;;
58083;SDS011;43882;51.550;11.858;2022-12-29T05:43:01;10.30;;;2.60;;
58083;SDS011;43882;51.550;11.858;2022-12-29T05:45:27;7.95;;;2.53;;
58083;SDS011;43882;51.550;11.858;2022-12-29T05:47:53;8.02;;;2.42;;
58083;SDS011;43882;51.550;11.858;2022-12-29T05:50:20;9.73;;;2.60;;
58083;SDS011;43882;51.550;11.858;2022-12-29T05:52:46;8.55;;;2.40;;
58083;SDS011;43882;51.550;11.858;2022-12-29T05:55:12;6.97;;;2.33;;
58083;SDS011;43882;51.550;11.858;2022-12-29T05:57:38;7.15;;;2.33;;
58083;SDS011;43882;51.550;11.858;2022-12-29T06:00:05;8.10;;;2.40;;
58083;SDS011;43882;51.550;11.858;2022-12-29T06:02:31;9.65;;;2.53;;
58083;SDS011;43882;51.550;11.858;2022-12-29T06:04:57;8.00;;;2.50;;
58083;SDS011;43882;51.550;11.858;2022-12-29T06:07:23;10.43;;;2.80;;
58083;SDS011;43882;51.550;11.858;2022-12-29T06:09:49;9.95;;;2.80;;
58083;SDS011;43882;51.550;11.858;2022-12-29T06:12:16;8.05;;;2.60;;
58083;SDS011;43882;51.550;11.858;2022-12-29T06:14:42;9.75;;;2.60;;
58083;SDS011;43882;51.550;11.858;2022-12-29T06:17:08;9.90;;;2.78;;
58083;SDS011;43882;51.550;11.858;2022-12-29T06:19:34;8.02;;;2.50;;
58083;SDS011;43882;51.550;11.858;2022-12-29T06:22:00;13.18;;;2.83;;
58083;SDS011;43882;51.550;11.858;2022-12-29T06:24:26;9.32;;;2.75;;
58083;SDS011;43882;51.550;11.858;2022-12-29T06:26:53;9.15;;;2.50;;
58083;SDS011;43882;51.550;11.858;2022-12-29T06:29:19;8.85;;;2.58;;
58083;SDS011;43882;51.550;11.858;2022-12-29T06:31:45;10.35;;;2.90;;
58083;SDS011;43882;51.550;11.858;2022-12-29T06:34:12;9.48;;;2.92;;
58083;SDS011;43882;51.550;11.858;2022-12-29T06:36:38;9.75;;;2.80;;
58083;SDS011;43882;51.550;11.858;2022-12-29T06:39:04;8.90;;;2.50;;
58083;SDS011;43882;51.550;11.858;2022-12-29T06:41:31;8.70;;;2.60;;
58083;SDS011;43882;51.550;11.858;2022-12-29T06:43:57;10.70;;;2.92;;
58083;SDS011;43882;51.550;11.858;2022-12-29T06:46:23;9.07;;;2.80;;
58083;SDS011;43882;51.550;11.858;2022-12-29T06:48:49;9.18;;;2.60;;
58083;SDS011;43882;51.550;11.858;2022-12-29T06:51:15;8.90;;;2.72;;
58083;SDS011;43882;51.550;11.858;2022-12-29T06:53:41;10.38;;;2.60;;
58083;SDS011;43882;51.550;11.858;2022-12-29T06:56:07;10.05;;;2.80;;
58083;SDS011;43882;51.550;11.858;2022-12-29T06:58:33;10.80;;;2.67;;
58083;SDS011;43882;51.550;11.858;2022-12-29T07:00:59;10.02;;;2.42;;
58083;SDS011;43882;51.550;11.858;2022-12-29T07:03:25;9.57;;;2.40;;
58083;SDS011;43882;51.550;11.858;2022-12-29T07:05:51;11.15;;;2.90;;
58083;SDS011;43882;51.550;11.858;2022-12-29T07:08:19;10.82;;;2.80;;
58083;SDS011;43882;51.550;11.858;2022-12-29T07:10:45;7.63;;;2.38;;
58083;SDS011;43882;51.550;11.858;2022-12-29T07:13:11;8.55;;;2.38;;
58083;SDS011;43882;51.550;11.858;2022-12-29T07:15:37;9.05;;;2.67;;
58083;SDS011;43882;51.550;11.858;2022-12-29T07:18:03;7.57;;;2.40;;
58083;SDS011;43882;51.550;11.858;2022-12-29T07:20:30;8.82;;;2.40;;
58083;SDS011;43882;51.550;11.858;2022-12-29T07:22:56;8.60;;;2.50;;
58083;SDS011;43882;51.550;11.858;2022-12-29T07:25:22;9.48;;;2.63;;
58083;SDS011;43882;51.550;11.858;2022-12-29T07:27:48;9.20;;;2.45;;
58083;SDS011;43882;51.550;11.858;2022-12-29T07:30:14;8.00;;;2.33;;
58083;SDS011;43882;51.550;11.858;2022-12-29T07:32:40;7.55;;;2.17;;
58083;SDS011;43882;51.550;11.858;2022-12-29T07:35:07;9.90;;;2.60;;
58083;SDS011;43882;51.550;11.858;2022-12-29T07:37:33;10.85;;;2.50;;
58083;SDS011;43882;51.550;11.858;2022-12-29T07:40:00;8.98;;;2.35;;
58083;SDS011;43882;51.550;11.858;2022-12-29T07:42:28;8.73;;;2.53;;
58083;SDS011;43882;51.550;11.858;2022-12-29T07:44:54;8.05;;;2.38;;
58083;SDS011;43882;51.550;11.858;2022-12-29T07:47:20;5.97;;;2.40;;
58083;SDS011;43882;51.550;11.858;2022-12-29T07:49:46;9.00;;;2.53;;
58083;SDS011;43882;51.550;11.858;2022-12-29T07:52:12;7.72;;;2.53;;
58083;SDS011;43882;51.550;11.858;2022-12-29T07:54:38;9.32;;;2.40;;
58083;SDS011;43882;51.550;11.858;2022-12-29T07:57:06;10.10;;;2.58;;
58083;SDS011;43882;51.550;11.858;2022-12-29T07:59:32;8.23;;;2.45;;
58083;SDS011;43882;51.550;11.858;2022-12-29T08:01:58;7.88;;;2.38;;
58083;SDS011;43882;51.550;11.858;2022-12-29T08:04:24;7.82;;;2.20;;
58083;SDS011;43882;51.550;11.858;2022-12-29T08:06:50;8.07;;;2.47;;
58083;SDS011;43882;51.550;11.858;2022-12-29T08:09:16;6.90;;;2.53;;
58083;SDS011;43882;51.550;11.858;2022-12-29T08:11:43;7.22;;;2.20;;
58083;SDS011;43882;51.550;11.858;2022-12-29T08:14:09;7.82;;;2.20;;
58083;SDS011;43882;51.550;11.858;2022-12-29T08:16:35;8.15;;;2.92;;
58083;SDS011;43882;51.550;11.858;2022-12-29T08:19:01;8.30;;;2.20;;
58083;SDS011;43882;51.550;11.858;2022-12-29T08:21:28;10.27;;;2.90;;
58083;SDS011;43882;51.550;11.858;2022-12-29T08:23:54;9.25;;;2.60;;
58083;SDS011;43882;51.550;11.858;2022-12-29T08:26:21;11.25;;;2.50;;
58083;SDS011;43882;51.550;11.858;2022-12-29T08:28:47;8.55;;;2.25;;
58083;SDS011;43882;51.550;11.858;2022-12-29T08:31:13;13.43;;;3.50;;
58083;SDS011;43882;51.550;11.858;2022-12-29T08:33:39;9.13;;;2.70;;
58083;SDS011;43882;51.550;11.858;2022-12-29T08:36:06;12.43;;;3.47;;
58083;SDS011;43882;51.550;11.858;2022-12-29T08:38:32;12.48;;;3.70;;
58083;SDS011;43882;51.550;11.858;2022-12-29T08:40:59;11.95;;;3.20;;
58083;SDS011;43882;51.550;11.858;2022-12-29T08:43:28;13.63;;;3.95;;
58083;SDS011;43882;51.550;11.858;2022-12-29T08:45:55;11.10;;;2.67;;
58083;SDS011;43882;51.550;11.858;2022-12-29T08:48:22;9.38;;;2.90;;
58083;SDS011;43882;51.550;11.858;2022-12-29T08:50:48;12.23;;;3.60;;
58083;SDS011;43882;51.550;11.858;2022-12-29T08:53:15;11.27;;;3.30;;
58083;SDS011;43882;51.550;11.858;2022-12-29T08:55:42;12.82;;;3.67;;
58083;SDS011;43882;51.550;11.858;2022-12-29T08:58:11;14.43;;;3.90;;
58083;SDS011;43882;51.550;11.858;2022-12-29T09:00:39;10.55;;;2.90;;
58083;SDS011;43882;51.550;11.858;2022-12-29T09:03:06;13.00;;;3.83;;
58083;SDS011;43882;51.550;11.858;2022-12-29T09:05:32;7.95;;;2.10;;
58083;SDS011;43882;51.550;11.858;2022-12-29T09:07:58;6.72;;;2.10;;
58083;SDS011;43882;51.550;11.858;2022-12-29T09:10:24;5.95;;;2.00;;
58083;SDS011;43882;51.550;11.858;2022-12-29T09:12:50;8.73;;;2.30;;
58083;SDS011;43882;51.550;11.858;2022-12-29T09:15:16;6.00;;;1.90;;
58083;SDS011;43882;51.550;11.858;2022-12-29T09:17:42;6.90;;;2.08;;
58083;SDS011;43882;51.550;11.858;2022-12-29T09:20:09;8.07;;;2.00;;
58083;SDS011;43882;51.550;11.858;2022-12-29T09:22:36;8.43;;;2.10;;
58083;SDS011;43882;51.550;11.858;2022-12-29T09:25:03;5.97;;;2.00;;
58083;SDS011;43882;51.550;11.858;2022-12-29T09:27:29;6.93;;;2.10;;
58083;SDS011;43882;51.550;11.858;2022-12-29T09:29:55;6.50;;;2.00;;
58083;SDS011;43882;51.550;11.858;2022-12-29T09:32:21;7.78;;;2.42;;
58083;SDS011;43882;51.550;11.858;2022-12-29T09:34:47;5.90;;;2.03;;
58083;SDS011;43882;51.550;11.858;2022-12-29T09:37:13;10.45;;;2.15;;
58083;SDS011;43882;51.550;11.858;2022-12-29T09:39:40;8.05;;;2.28;;
58083;SDS011;43882;51.550;11.858;2022-12-29T09:42:20;9.07;;;2.90;;
58083;SDS011;43882;51.550;11.858;2022-12-29T09:45:03;9.65;;;2.53;;
58083;SDS011;43882;51.550;11.858;2022-12-29T09:47:34;5.57;;;2.03;;
58083;SDS011;43882;51.550;11.858;2022-12-29T09:50:02;4.70;;;1.90;;
58083;SDS011;43882;51.550;11.858;2022-12-29T09:52:37;5.45;;;2.15;;
58083;SDS011;43882;51.550;11.858;2022-12-29T09:55:13;9.90;;;2.60;;
58083;SDS011;43882;51.550;11.858;2022-12-29T09:57:45;7.72;;;2.47;;
58083;SDS011;43882;51.550;11.858;2022-12-29T10:00:19;8.15;;;2.30;;
58083;SDS011;43882;51.550;11.858;2022-12-29T10:05:53;8.68;;;2.70;;
58083;SDS011;43882;51.550;11.858;2022-12-29T10:08:25;9.57;;;2.35;;
58083;SDS011;43882;51.550;11.858;2022-12-29T10:10:59;9.93;;;2.22;;
58083;SDS011;43882;51.550;11.858;2022-12-29T10:16:26;10.00;;;2.25;;
58083;SDS011;43882;51.550;11.858;2022-12-29T10:24:18;5.85;;;2.13;;
58083;SDS011;43882;51.550;11.858;2022-12-29T10:26:45;9.75;;;2.22;;
58083;SDS011;43882;51.550;11.858;2022-12-29T10:31:44;5.13;;;2.00;;
58083;SDS011;43882;51.550;11.858;2022-12-29T10:34:22;8.02;;;2.00;;
58083;SDS011;43882;51.550;11.858;2022-12-29T10:37:00;6.45;;;1.90;;
58083;SDS011;43882;51.550;11.858;2022-12-29T10:39:50;7.05;;;2.10;;
58083;SDS011;43882;51.550;11.858;2022-12-29T10:44:55;8.98;;;2.30;;
58083;SDS011;43882;51.550;11.858;2022-12-29T10:47:26;8.73;;;2.83;;
58083;SDS011;43882;51.550;11.858;2022-12-29T10:49:56;6.72;;;2.13;;
58083;SDS011;43882;51.550;11.858;2022-12-29T10:52:25;8.07;;;2.17;;
58083;SDS011;43882;51.550;11.858;2022-12-29T10:54:59;8.15;;;2.42;;
58083;SDS011;43882;51.550;11.858;2022-12-29T10:57:45;7.55;;;2.10;;
58083;SDS011;43882;51.550;11.858;2022-12-29T11:00:13;11.80;;;2.38;;
58083;SDS011;43882;51.550;11.858;2022-12-29T11:07:59;7.40;;;2.10;;
58083;SDS011;43882;51.550;11.858;2022-12-29T11:10:30;8.95;;;2.38;;
58083;SDS011;43882;51.550;11.858;2022-12-29T11:13:03;7.88;;;2.30;;
58083;SDS011;43882;51.550;11.858;2022-12-29T11:15:40;10.13;;;2.70;;
58083;SDS011;43882;51.550;11.858;2022-12-29T11:18:26;9.75;;;2.17;;
58083;SDS011;43882;51.550;11.858;2022-12-29T11:21:03;9.10;;;2.20;;
58083;SDS011;43882;51.550;11.858;2022-12-29T11:23:33;9.60;;;2.35;;
58083;SDS011;43882;51.550;11.858;2022-12-29T11:26:05;8.05;;;2.17;;
58083;SDS011;43882;51.550;11.858;2022-12-29T11:28:35;8.53;;;2.10;;
58083;SDS011;43882;51.550;11.858;2022-12-29T11:31:03;6.88;;;2.20;;
58083;SDS011;43882;51.550;11.858;2022-12-29T11:33:31;11.52;;;2.42;;
58083;SDS011;43882;51.550;11.858;2022-12-29T11:35:58;10.43;;;2.72;;
58083;SDS011;43882;51.550;11.858;2022-12-29T11:38:35;8.20;;;2.15;;
58083;SDS011;43882;51.550;11.858;2022-12-29T11:41:02;7.63;;;2.30;;
58083;SDS011;43882;51.550;11.858;2022-12-29T11:43:33;5.43;;;2.05;;
58083;SDS011;43882;51.550;11.858;2022-12-29T11:46:04;9.35;;;2.35;;
58083;SDS011;43882;51.550;11.858;2022-12-29T11:48:38;7.32;;;2.30;;
58083;SDS011;43882;51.550;11.858;2022-12-29T11:51:05;7.25;;;2.40;;
58083;SDS011;43882;51.550;11.858;2022-12-29T11:53:39;6.90;;;2.00;;
58083;SDS011;43882;51.550;11.858;2022-12-29T11:56:10;8.98;;;2.28;;
58083;SDS011;43882;51.550;11.858;2022-12-29T11:58:40;7.78;;;2.00;;
58083;SDS011;43882;51.550;11.858;2022-12-29T12:01:10;7.10;;;2.15;;
58083;SDS011;43882;51.550;11.858;2022-12-29T12:03:52;6.03;;;1.77;;
58083;SDS011;43882;51.550;11.858;2022-12-29T12:06:22;3.60;;;1.65;;
58083;SDS011;43882;51.550;11.858;2022-12-29T12:08:56;7.03;;;1.83;;
58083;SDS011;43882;51.550;11.858;2022-12-29T12:11:40;8.43;;;1.80;;
58083;SDS011;43882;51.550;11.858;2022-12-29T12:16:55;4.18;;;1.60;;
58083;SDS011;43882;51.550;11.858;2022-12-29T12:19:32;8.23;;;2.25;;
58083;SDS011;43882;51.550;11.858;2022-12-29T12:22:17;7.50;;;2.10;;
58083;SDS011;43882;51.550;11.858;2022-12-29T12:30:09;5.07;;;2.08;;
58083;SDS011;43882;51.550;11.858;2022-12-29T12:36:02;5.97;;;1.90;;
58083;SDS011;43882;51.550;11.858;2022-12-29T12:38:42;9.30;;;2.20;;
58083;SDS011;43882;51.550;11.858;2022-12-29T12:41:44;10.10;;;2.58;;
58083;SDS011;43882;51.550;11.858;2022-12-29T12:47:09;5.55;;;2.30;;
58083;SDS011;43882;51.550;11.858;2022-12-29T12:58:19;9.40;;;2.53;;
58083;SDS011;43882;51.550;11.858;2022-12-29T13:00:59;10.30;;;2.40;;
58083;SDS011;43882;51.550;11.858;2022-12-29T13:12:35;8.70;;;2.30;;
58083;SDS011;43882;51.550;11.858;2022-12-29T13:15:12;10.45;;;2.72;;
58083;SDS011;43882;51.550;11.858;2022-12-29T13:17:46;7.95;;;2.38;;
58083;SDS011;43882;51.550;11.858;2022-12-29T13:23:01;10.15;;;2.30;;
58083;SDS011;43882;51.550;11.858;2022-12-29T13:25:55;7.90;;;2.30;;
58083;SDS011;43882;51.550;11.858;2022-12-29T13:28:28;8.13;;;2.20;;
58083;SDS011;43882;51.550;11.858;2022-12-29T13:31:20;8.15;;;2.17;;
58083;SDS011;43882;51.550;11.858;2022-12-29T13:34:00;8.50;;;2.20;;
58083;SDS011;43882;51.550;11.858;2022-12-29T13:39:19;8.10;;;2.05;;
58083;SDS011;43882;51.550;11.858;2022-12-29T13:41:58;9.48;;;2.67;;
58083;SDS011;43882;51.550;11.858;2022-12-29T13:44:27;7.53;;;2.25;;
58083;SDS011;43882;51.550;11.858;2022-12-29T13:46:55;6.45;;;2.00;;
58083;SDS011;43882;51.550;11.858;2022-12-29T13:49:24;7.97;;;2.15;;
58083;SDS011;43882;51.550;11.858;2022-12-29T13:51:57;6.70;;;2.28;;
58083;SDS011;43882;51.550;11.858;2022-12-29T13:59:57;7.47;;;2.08;;
58083;SDS011;43882;51.550;11.858;2022-12-29T14:02:42;7.55;;;2.10;;
58083;SDS011;43882;51.550;11.858;2022-12-29T14:07:46;7.60;;;2.05;;
58083;SDS011;43882;51.550;11.858;2022-12-29T14:13:14;7.60;;;2.25;;
58083;SDS011;43882;51.550;11.858;2022-12-29T14:15:51;7.38;;;1.95;;
58083;SDS011;43882;51.550;11.858;2022-12-29T14:18:25;9.93;;;3.17;;
58083;SDS011;43882;51.550;11.858;2022-12-29T14:20:59;7.30;;;2.13;;
58083;SDS011;43882;51.550;11.858;2022-12-29T14:28:57;8.73;;;2.10;;
58083;SDS011;43882;51.550;11.858;2022-12-29T14:31:48;7.18;;;1.88;;
58083;SDS011;43882;51.550;11.858;2022-12-29T14:36:41;6.63;;;2.00;;
58083;SDS011;43882;51.550;11.858;2022-12-29T14:42:01;9.15;;;2.30;;
58083;SDS011;43882;51.550;11.858;2022-12-29T14:44:54;11.57;;;2.38;;
58083;SDS011;43882;51.550;11.858;2022-12-29T14:47:32;7.57;;;2.20;;
58083;SDS011;43882;51.550;11.858;2022-12-29T14:50:07;6.72;;;1.98;;
58083;SDS011;43882;51.550;11.858;2022-12-29T14:52:58;11.90;;;2.92;;
58083;SDS011;43882;51.550;11.858;2022-12-29T14:55:41;9.98;;;2.17;;
58083;SDS011;43882;51.550;11.858;2022-12-29T15:00:46;10.98;;;3.10;;
58083;SDS011;43882;51.550;11.858;2022-12-29T15:03:22;10.85;;;2.95;;
58083;SDS011;43882;51.550;11.858;2022-12-29T15:08:31;10.93;;;2.20;;
58083;SDS011;43882;51.550;11.858;2022-12-29T15:11:03;11.60;;;2.40;;
58083;SDS011;43882;51.550;11.858;2022-12-29T15:13:41;5.55;;;1.90;;
58083;SDS011;43882;51.550;11.858;2022-12-29T15:16:21;7.05;;;2.13;;
58083;SDS011;43882;51.550;11.858;2022-12-29T15:18:58;7.38;;;2.08;;
58083;SDS011;43882;51.550;11.858;2022-12-29T15:21:25;7.35;;;2.83;;
58083;SDS011;43882;51.550;11.858;2022-12-29T15:23:55;7.18;;;2.10;;
58083;SDS011;43882;51.550;11.858;2022-12-29T15:26:21;8.95;;;2.13;;
58083;SDS011;43882;51.550;11.858;2022-12-29T15:28:49;9.23;;;2.10;;
58083;SDS011;43882;51.550;11.858;2022-12-29T15:31:22;8.50;;;2.15;;
58083;SDS011;43882;51.550;11.858;2022-12-29T15:33:50;10.20;;;2.25;;
58083;SDS011;43882;51.550;11.858;2022-12-29T15:36:19;5.88;;;1.92;;
58083;SDS011;43882;51.550;11.858;2022-12-29T15:38:47;5.43;;;1.88;;
58083;SDS011;43882;51.550;11.858;2022-12-29T15:41:24;4.47;;;1.67;;
58083;SDS011;43882;51.550;11.858;2022-12-29T15:46:34;5.13;;;1.80;;
58083;SDS011;43882;51.550;11.858;2022-12-29T15:49:00;6.10;;;1.40;;
58083;SDS011;43882;51.550;11.858;2022-12-29T15:51:33;4.82;;;1.55;;
58083;SDS011;43882;51.550;11.858;2022-12-29T15:54:01;6.97;;;1.67;;
58083;SDS011;43882;51.550;11.858;2022-12-29T15:56:28;4.32;;;1.55;;
58083;SDS011;43882;51.550;11.858;2022-12-29T15:58:55;4.65;;;1.50;;
58083;SDS011;43882;51.550;11.858;2022-12-29T16:10:54;8.15;;;1.83;;
58083;SDS011;43882;51.550;11.858;2022-12-29T16:13:42;6.72;;;1.60;;
58083;SDS011;43882;51.550;11.858;2022-12-29T16:16:13;7.03;;;1.63;;
58083;SDS011;43882;51.550;11.858;2022-12-29T16:19:03;6.70;;;1.60;;
58083;SDS011;43882;51.550;11.858;2022-12-29T16:28:58;3.55;;;1.65;;
58083;SDS011;43882;51.550;11.858;2022-12-29T16:37:01;5.00;;;1.67;;
58083;SDS011;43882;51.550;11.858;2022-12-29T16:39:52;6.18;;;1.90;;
58083;SDS011;43882;51.550;11.858;2022-12-29T16:42:34;8.38;;;1.83;;
58083;SDS011;43882;51.550;11.858;2022-12-29T16:47:45;9.25;;;2.00;;
58083;SDS011;43882;51.550;11.858;2022-12-29T16:50:29;6.72;;;2.05;;
58083;SDS011;43882;51.550;11.858;2022-12-29T16:52:56;7.00;;;1.98;;
58083;SDS011;43882;51.550;11.858;2022-12-29T16:55:22;7.60;;;1.85;;
58083;SDS011;43882;51.550;11.858;2022-12-29T16:57:49;5.72;;;1.75;;
58083;SDS011;43882;51.550;11.858;2022-12-29T17:00:21;7.20;;;2.45;;
58083;SDS011;43882;51.550;11.858;2022-12-29T17:02:49;12.93;;;2.50;;
58083;SDS011;43882;51.550;11.858;2022-12-29T17:05:16;5.63;;;1.60;;
58083;SDS011;43882;51.550;11.858;2022-12-29T17:07:44;11.27;;;2.30;;